PWSweather.com
Personal Weather Stations
Station Observations
IONTARIO88
Lincoln, ON L0R

Lincoln, ON L0R

Lat: 43.1763563, Lon: -79.4719525

Elevation: 297

Station Type: Davis Vantage Pro 2 Plus

http://www.beamsvillewx.ca

High Low Average
Temperature 89.1°F31.7°C 68.7°F20.4°C 76.8°F24.9°C
Dew Point 73.3°F22.9°C 65.0°F18.3°C 70.1°F21.2°C
Winds 5.0 mph 8.0 kmh Calm Calm 2.0 mph SW3.2 kmh SW
Wind Gusts 15.0 mph24.1 kmh -- 5.0 mph8.0 kmh
Humidity 93% 55% 81%
Pressure 30.07 in1018.3 mb 29.98 in1015.2 mb -
Precipitation 0.73 in18.5 mm - -
Hour Temp Dew Point Humidity Winds Wind Gusts Pressure Precip Precip Rate Daily Precip Total
12:00 AM 77.7°F25.4°C 67.6°F19.8°C 71% 5.0 mph S8.0 kmh S 13.0 mph20.9 kmh 29.97 in1014.9 mb 0.00 in0.0 mm 0.00 in0.0 mm 0.00 in0.0 mm
12:15 AM 77.7°F25.4°C 67.6°F19.8°C 71% 7.0 mph S11.3 kmh S 15.0 mph24.1 kmh 29.98 in1015.2 mb 0.00 in0.0 mm 0.00 in0.0 mm 0.00 in0.0 mm
12:30 AM 77.9°F25.5°C 67.7°F19.8°C 71% 7.0 mph SSW11.3 kmh SSW 15.0 mph24.1 kmh 30.02 in1016.6 mb 0.00 in0.0 mm 0.00 in0.0 mm 0.00 in0.0 mm
05:45 AM 70.0°F21.1°C 67.9°F19.9°C 93% 2.0 mph SW3.2 kmh SW 6.0 mph9.7 kmh 30.01 in1016.3 mb 0.02 in0.5 mm 0.08 in2.0 mm 0.59 in15.0 mm
06:00 AM 70.0°F21.1°C 67.9°F19.9°C 93% 3.0 mph SSW4.8 kmh SSW 8.0 mph12.9 kmh 30.02 in1016.6 mb 0.02 in0.5 mm 0.00 in0.0 mm 0.59 in15.0 mm
06:15 AM 70.2°F21.2°C 68.0°F20.0°C 93% 3.0 mph SSW4.8 kmh SSW 9.0 mph14.5 kmh 30.03 in1016.9 mb 0.02 in0.5 mm 0.00 in0.0 mm 0.59 in15.0 mm
06:30 AM 70.2°F21.2°C 68.0°F20.0°C 93% 3.0 mph SSW4.8 kmh SSW 9.0 mph14.5 kmh 30.03 in1016.9 mb 0.02 in0.5 mm 0.00 in0.0 mm 0.59 in15.0 mm
06:45 AM 70.0°F21.1°C 67.9°F19.9°C 93% 2.0 mph SW3.2 kmh SW 8.0 mph12.9 kmh 30.03 in1016.9 mb 0.00 in0.0 mm 0.00 in0.0 mm 0.59 in15.0 mm
07:00 AM 70.0°F21.1°C 67.9°F19.9°C 93% 3.0 mph S4.8 kmh S 7.0 mph11.3 kmh 30.03 in1016.9 mb 0.00 in0.0 mm 0.00 in0.0 mm 0.59 in15.0 mm
07:15 AM 70.0°F21.1°C 67.5°F19.7°C 92% 2.0 mph S3.2 kmh S 7.0 mph11.3 kmh 30.04 in1017.3 mb 0.00 in0.0 mm 0.00 in0.0 mm 0.59 in15.0 mm
07:30 AM 70.0°F21.1°C 67.5°F19.7°C 92% 2.0 mph S3.2 kmh S 6.0 mph9.7 kmh 30.04 in1017.3 mb 0.00 in0.0 mm 0.00 in0.0 mm 0.59 in15.0 mm
07:45 AM 70.0°F21.1°C 67.5°F19.7°C 92% 1.0 mph S1.6 kmh S 5.0 mph8.0 kmh 30.05 in1017.6 mb 0.00 in0.0 mm 0.00 in0.0 mm 0.59 in15.0 mm
08:00 AM 70.2°F21.2°C 67.7°F19.8°C 92% 1.0 mph S1.6 kmh S 6.0 mph9.7 kmh 30.06 in1017.9 mb 0.00 in0.0 mm 0.00 in0.0 mm 0.59 in15.0 mm
08:15 AM 70.5°F21.4°C 68.1°F20.1°C 92% 2.0 mph S3.2 kmh S 5.0 mph8.0 kmh 30.06 in1017.9 mb 0.00 in0.0 mm 0.00 in0.0 mm 0.59 in15.0 mm
08:30 AM 71.1°F21.7°C 68.6°F20.3°C 92% 2.0 mph S3.2 kmh S 5.0 mph8.0 kmh 30.06 in1017.9 mb 0.00 in0.0 mm 0.00 in0.0 mm 0.59 in15.0 mm
08:45 AM 72.0°F22.2°C 69.5°F20.8°C 92% 3.0 mph S4.8 kmh S 6.0 mph9.7 kmh 30.06 in1017.9 mb 0.00 in0.0 mm 0.00 in0.0 mm 0.59 in15.0 mm
09:00 AM 72.3°F22.4°C 69.5°F20.8°C 91% 3.0 mph WSW4.8 kmh WSW 6.0 mph9.7 kmh 30.06 in1017.9 mb 0.00 in0.0 mm 0.00 in0.0 mm 0.59 in15.0 mm
09:15 AM 72.9°F22.7°C 69.8°F21.0°C 90% 3.0 mph WSW4.8 kmh WSW 8.0 mph12.9 kmh 30.07 in1018.3 mb 0.00 in0.0 mm 0.00 in0.0 mm 0.59 in15.0 mm
09:30 AM 73.6°F23.1°C 70.1°F21.2°C 89% 3.0 mph WSW4.8 kmh WSW 7.0 mph11.3 kmh 30.07 in1018.3 mb 0.00 in0.0 mm 0.00 in0.0 mm 0.59 in15.0 mm
09:45 AM 74.1°F23.4°C 70.3°F21.3°C 88% 2.0 mph W3.2 kmh W 5.0 mph8.0 kmh 30.07 in1018.3 mb 0.00 in0.0 mm 0.00 in0.0 mm 0.59 in15.0 mm
10:00 AM 75.0°F23.9°C 70.9°F21.6°C 87% 3.0 mph WSW4.8 kmh WSW 6.0 mph9.7 kmh 30.07 in1018.3 mb 0.00 in0.0 mm 0.00 in0.0 mm 0.59 in15.0 mm
10:15 AM 75.6°F24.2°C 71.1°F21.7°C 86% 3.0 mph W4.8 kmh W 6.0 mph9.7 kmh 30.07 in1018.3 mb 0.00 in0.0 mm 0.00 in0.0 mm 0.59 in15.0 mm
10:30 AM 76.3°F24.6°C 71.1°F21.7°C 84% 4.0 mph WSW6.4 kmh WSW 9.0 mph14.5 kmh 30.07 in1018.3 mb 0.00 in0.0 mm 0.00 in0.0 mm 0.59 in15.0 mm
10:45 AM 76.5°F24.7°C 70.9°F21.6°C 83% 4.0 mph NW6.4 kmh NW 9.0 mph14.5 kmh 30.07 in1018.3 mb 0.00 in0.0 mm 0.00 in0.0 mm 0.59 in15.0 mm
11:00 AM 76.5°F24.7°C 70.9°F21.6°C 83% 1.0 mph NNW1.6 kmh NNW 7.0 mph11.3 kmh 30.06 in1017.9 mb 0.00 in0.0 mm 0.00 in0.0 mm 0.59 in15.0 mm
11:15 AM 76.1°F24.5°C 70.6°F21.4°C 83% 4.0 mph NNW6.4 kmh NNW 7.0 mph11.3 kmh 30.06 in1017.9 mb 0.00 in0.0 mm 0.00 in0.0 mm 0.59 in15.0 mm
11:30 AM 76.3°F24.6°C 70.7°F21.5°C 83% 3.0 mph NNW4.8 kmh NNW 6.0 mph9.7 kmh 30.06 in1017.9 mb 0.00 in0.0 mm 0.00 in0.0 mm 0.59 in15.0 mm
11:45 AM 76.5°F24.7°C 70.6°F21.4°C 82% 1.0 mph NNW1.6 kmh NNW 4.0 mph6.4 kmh 30.06 in1017.9 mb 0.00 in0.0 mm 0.00 in0.0 mm 0.59 in15.0 mm
12:00 PM 76.8°F24.9°C 70.5°F21.4°C 81% 1.0 mph NNW1.6 kmh NNW 4.0 mph6.4 kmh 30.06 in1017.9 mb 0.00 in0.0 mm 0.00 in0.0 mm 0.59 in15.0 mm
12:15 PM 77.5°F25.3°C 71.6°F22.0°C 82% 1.0 mph NNW1.6 kmh NNW 3.0 mph4.8 kmh 30.06 in1017.9 mb 0.00 in0.0 mm 0.00 in0.0 mm 0.59 in15.0 mm
12:30 PM 78.6°F25.9°C 71.6°F22.0°C 79% 1.0 mph NNW1.6 kmh NNW 3.0 mph4.8 kmh 30.06 in1017.9 mb 0.00 in0.0 mm 0.00 in0.0 mm 0.59 in15.0 mm
12:45 PM 80.2°F26.8°C 72.0°F22.2°C 76% 1.0 mph NNW1.6 kmh NNW 5.0 mph8.0 kmh 30.06 in1017.9 mb 0.00 in0.0 mm 0.00 in0.0 mm 0.59 in15.0 mm
01:00 PM 80.8°F27.1°C 72.9°F22.7°C 77% 3.0 mph NNW4.8 kmh NNW 7.0 mph11.3 kmh 30.05 in1017.6 mb 0.00 in0.0 mm 0.00 in0.0 mm 0.59 in15.0 mm
01:15 PM 79.9°F26.6°C 72.0°F22.2°C 77% 3.0 mph N4.8 kmh N 6.0 mph9.7 kmh 30.05 in1017.6 mb 0.00 in0.0 mm 0.00 in0.0 mm 0.59 in15.0 mm
01:30 PM 81.1°F27.3°C 73.2°F22.9°C 77% 1.0 mph NNW1.6 kmh NNW 5.0 mph8.0 kmh 30.05 in1017.6 mb 0.00 in0.0 mm 0.00 in0.0 mm 0.59 in15.0 mm
01:45 PM 81.9°F27.7°C 72.4°F22.4°C 73% 1.0 mph NNW1.6 kmh NNW 4.0 mph6.4 kmh 30.04 in1017.3 mb 0.00 in0.0 mm 0.00 in0.0 mm 0.59 in15.0 mm
02:00 PM 81.3°F27.4°C 72.2°F22.3°C 74% 1.0 mph NNW1.6 kmh NNW 3.0 mph4.8 kmh 30.04 in1017.3 mb 0.00 in0.0 mm 0.00 in0.0 mm 0.59 in15.0 mm
02:15 PM 81.9°F27.7°C 72.4°F22.4°C 73% 1.0 mph NNW1.6 kmh NNW 3.0 mph4.8 kmh 30.04 in1017.3 mb 0.00 in0.0 mm 0.00 in0.0 mm 0.59 in15.0 mm
02:30 PM 83.5°F28.6°C 73.1°F22.8°C 71% 2.0 mph NNW3.2 kmh NNW 6.0 mph9.7 kmh 30.04 in1017.3 mb 0.00 in0.0 mm 0.00 in0.0 mm 0.59 in15.0 mm
02:45 PM 85.8°F29.9°C 71.3°F21.8°C 62% 4.0 mph SW6.4 kmh SW 10.0 mph16.1 kmh 30.03 in1016.9 mb 0.00 in0.0 mm 0.00 in0.0 mm 0.59 in15.0 mm
03:00 PM 87.1°F30.6°C 72.5°F22.5°C 62% 4.0 mph W6.4 kmh W 10.0 mph16.1 kmh 30.02 in1016.6 mb 0.00 in0.0 mm 0.00 in0.0 mm 0.59 in15.0 mm
03:15 PM 87.3°F30.7°C 71.7°F22.1°C 60% 3.0 mph SW4.8 kmh SW 10.0 mph16.1 kmh 30.01 in1016.3 mb 0.00 in0.0 mm 0.00 in0.0 mm 0.59 in15.0 mm
03:30 PM 88.3°F31.3°C 70.7°F21.5°C 56% 4.0 mph WSW6.4 kmh WSW 7.0 mph11.3 kmh 30.01 in1016.3 mb 0.00 in0.0 mm 0.00 in0.0 mm 0.59 in15.0 mm
03:45 PM 88.0°F31.1°C 71.3°F21.8°C 58% 4.0 mph WSW6.4 kmh WSW 11.0 mph17.7 kmh 30.01 in1016.3 mb 0.00 in0.0 mm 0.00 in0.0 mm 0.59 in15.0 mm
04:00 PM 87.6°F30.9°C 71.5°F21.9°C 59% 2.0 mph WSW3.2 kmh WSW 9.0 mph14.5 kmh 29.99 in1015.6 mb 0.00 in0.0 mm 0.00 in0.0 mm 0.59 in15.0 mm
04:15 PM 88.5°F31.4°C 72.4°F22.4°C 59% 3.0 mph W4.8 kmh W 6.0 mph9.7 kmh 29.99 in1015.6 mb 0.00 in0.0 mm 0.00 in0.0 mm 0.59 in15.0 mm
04:30 PM 89.1°F31.7°C 71.8°F22.1°C 57% 2.0 mph NW3.2 kmh NW 7.0 mph11.3 kmh 29.99 in1015.6 mb 0.00 in0.0 mm 0.00 in0.0 mm 0.59 in15.0 mm
04:45 PM 88.9°F31.6°C 71.2°F21.8°C 56% 1.0 mph WSW1.6 kmh WSW 4.0 mph6.4 kmh 29.99 in1015.6 mb 0.00 in0.0 mm 0.00 in0.0 mm 0.59 in15.0 mm
05:00 PM 88.7°F31.5°C 70.5°F21.4°C 55% 3.0 mph WSW4.8 kmh WSW 7.0 mph11.3 kmh 30.00 in1015.9 mb 0.00 in0.0 mm 0.00 in0.0 mm 0.59 in15.0 mm
05:15 PM 85.8°F29.9°C 69.8°F21.0°C 59% Calm Calm 3.0 mph4.8 kmh 29.99 in1015.6 mb 0.00 in0.0 mm 0.00 in0.0 mm 0.59 in15.0 mm
05:30 PM 85.1°F29.5°C 70.6°F21.4°C 62% Calm Calm 2.0 mph3.2 kmh 29.98 in1015.2 mb 0.00 in0.0 mm 0.00 in0.0 mm 0.59 in15.0 mm
05:45 PM 84.6°F29.2°C 71.0°F21.7°C 64% Calm Calm 1.0 mph1.6 kmh 29.99 in1015.6 mb 0.00 in0.0 mm 0.00 in0.0 mm 0.59 in15.0 mm
06:00 PM 83.8°F28.8°C 70.8°F21.6°C 65% Calm Calm -- 29.99 in1015.6 mb 0.00 in0.0 mm 0.00 in0.0 mm 0.59 in15.0 mm
06:15 PM 82.9°F28.3°C 72.6°F22.6°C 71% Calm Calm 3.0 mph4.8 kmh 29.98 in1015.2 mb 0.00 in0.0 mm 0.00 in0.0 mm 0.59 in15.0 mm
06:30 PM 82.0°F27.8°C 73.3°F22.9°C 75% 1.0 mph W1.6 kmh W 4.0 mph6.4 kmh 29.99 in1015.6 mb 0.00 in0.0 mm 0.00 in0.0 mm 0.59 in15.0 mm
06:45 PM 81.3°F27.4°C 72.6°F22.6°C 75% 1.0 mph SW1.6 kmh SW 7.0 mph11.3 kmh 29.99 in1015.6 mb 0.00 in0.0 mm 0.00 in0.0 mm 0.59 in15.0 mm
07:00 PM 80.6°F27.0°C 72.7°F22.6°C 77% Calm Calm 3.0 mph4.8 kmh 29.99 in1015.6 mb 0.00 in0.0 mm 0.00 in0.0 mm 0.59 in15.0 mm
07:15 PM 80.1°F26.7°C 72.6°F22.6°C 78% Calm Calm 5.0 mph8.0 kmh 29.99 in1015.6 mb 0.00 in0.0 mm 0.00 in0.0 mm 0.59 in15.0 mm
07:30 PM 79.5°F26.4°C 72.4°F22.4°C 79% Calm Calm 1.0 mph1.6 kmh 29.99 in1015.6 mb 0.00 in0.0 mm 0.00 in0.0 mm 0.59 in15.0 mm
07:45 PM 79.3°F26.3°C 72.6°F22.6°C 80% Calm Calm -- 29.99 in1015.6 mb 0.00 in0.0 mm 0.00 in0.0 mm 0.59 in15.0 mm
08:00 PM 78.6°F25.9°C 73.0°F22.8°C 83% Calm Calm 4.0 mph6.4 kmh 29.99 in1015.6 mb 0.00 in0.0 mm 0.00 in0.0 mm 0.59 in15.0 mm
08:15 PM 77.5°F25.3°C 73.0°F22.8°C 86% Calm Calm 3.0 mph4.8 kmh 29.99 in1015.6 mb 0.02 in0.5 mm 0.08 in2.0 mm 0.61 in15.5 mm
08:30 PM 76.3°F24.6°C 72.8°F22.7°C 89% 2.0 mph SSW3.2 kmh SSW 5.0 mph8.0 kmh 30.01 in1016.3 mb 0.05 in1.3 mm 0.12 in3.0 mm 0.64 in16.3 mm
08:45 PM 74.7°F23.7°C 70.9°F21.6°C 88% 5.0 mph WNW8.0 kmh WNW 15.0 mph24.1 kmh 30.02 in1016.6 mb 0.07 in1.8 mm 0.08 in2.0 mm 0.66 in16.8 mm
09:00 PM 72.3°F22.4°C 68.9°F20.5°C 89% 3.0 mph W4.8 kmh W 9.0 mph14.5 kmh 30.00 in1015.9 mb 0.09 in2.3 mm 0.03 in0.8 mm 0.69 in17.5 mm
09:15 PM 71.6°F22.0°C 68.5°F20.3°C 90% Calm Calm 1.0 mph1.6 kmh 29.99 in1015.6 mb 0.08 in2.0 mm 0.00 in0.0 mm 0.69 in17.5 mm
09:30 PM 71.2°F21.8°C 68.5°F20.3°C 91% Calm Calm 2.0 mph3.2 kmh 29.98 in1015.2 mb 0.08 in2.0 mm 0.00 in0.0 mm 0.72 in18.3 mm
09:45 PM 71.2°F21.8°C 68.8°F20.4°C 92% Calm Calm 2.0 mph3.2 kmh 29.98 in1015.2 mb 0.06 in1.5 mm 0.00 in0.0 mm 0.72 in18.3 mm
10:00 PM 71.2°F21.8°C 68.8°F20.4°C 92% Calm Calm -- 30.00 in1015.9 mb 0.04 in1.0 mm 0.00 in0.0 mm 0.72 in18.3 mm
10:15 PM 71.2°F21.8°C 68.8°F20.4°C 92% Calm Calm 1.0 mph1.6 kmh 30.00 in1015.9 mb 0.04 in1.0 mm 0.00 in0.0 mm 0.73 in18.5 mm
10:30 PM 71.1°F21.7°C 68.6°F20.3°C 92% 2.0 mph WSW3.2 kmh WSW 5.0 mph8.0 kmh 30.01 in1016.3 mb 0.02 in0.5 mm 0.00 in0.0 mm 0.73 in18.5 mm
10:45 PM 70.7°F21.5°C 68.3°F20.2°C 92% Calm Calm 3.0 mph4.8 kmh 30.01 in1016.3 mb 0.01 in0.3 mm 0.00 in0.0 mm 0.73 in18.5 mm
11:00 PM 70.3°F21.3°C 67.9°F19.9°C 92% Calm Calm 3.0 mph4.8 kmh 30.01 in1016.3 mb 0.01 in0.3 mm 0.00 in0.0 mm 0.73 in18.5 mm
11:15 PM 70.3°F21.3°C 67.9°F19.9°C 92% Calm Calm 4.0 mph6.4 kmh 30.02 in1016.6 mb 0.00 in0.0 mm 0.00 in0.0 mm 0.73 in18.5 mm
11:30 PM 70.0°F21.1°C 67.5°F19.7°C 92% 1.0 mph NW1.6 kmh NW 6.0 mph9.7 kmh 30.02 in1016.6 mb 0.00 in0.0 mm 0.00 in0.0 mm 0.73 in18.5 mm
11:45 PM 69.3°F20.7°C 65.6°F18.7°C 88% 2.0 mph N3.2 kmh N 6.0 mph9.7 kmh 30.02 in1016.6 mb 0.00 in0.0 mm 0.00 in0.0 mm 0.73 in18.5 mm